sensor_id;sensor_type;location;lat;lon;timestamp;P1;durP1;ratioP1;P2;durP2;ratioP2
75016;SDS011;63577;39.766;2.720;2022-10-18T00:00:28;23.10;;;4.90;;
75016;SDS011;63577;39.766;2.720;2022-10-18T00:02:53;22.10;;;4.20;;
75016;SDS011;63577;39.766;2.720;2022-10-18T00:05:19;27.40;;;4.90;;
75016;SDS011;63577;39.766;2.720;2022-10-18T00:07:44;19.30;;;4.70;;
75016;SDS011;63577;39.766;2.720;2022-10-18T00:10:09;25.20;;;5.00;;
75016;SDS011;63577;39.766;2.720;2022-10-18T00:12:35;26.50;;;4.70;;
75016;SDS011;63577;39.766;2.720;2022-10-18T00:15:01;19.90;;;4.80;;
75016;SDS011;63577;39.766;2.720;2022-10-18T00:17:27;27.70;;;5.00;;
75016;SDS011;63577;39.766;2.720;2022-10-18T00:19:52;24.80;;;5.00;;
75016;SDS011;63577;39.766;2.720;2022-10-18T00:22:18;20.10;;;5.50;;
75016;SDS011;63577;39.766;2.720;2022-10-18T00:24:43;26.20;;;5.90;;
75016;SDS011;63577;39.766;2.720;2022-10-18T00:27:08;23.70;;;5.40;;
75016;SDS011;63577;39.766;2.720;2022-10-18T00:29:34;22.20;;;6.00;;
75016;SDS011;63577;39.766;2.720;2022-10-18T00:31:59;26.70;;;5.60;;
75016;SDS011;63577;39.766;2.720;2022-10-18T00:34:24;23.80;;;5.50;;
75016;SDS011;63577;39.766;2.720;2022-10-18T00:36:50;21.70;;;5.10;;
75016;SDS011;63577;39.766;2.720;2022-10-18T00:39:16;20.80;;;5.20;;
75016;SDS011;63577;39.766;2.720;2022-10-18T00:41:42;18.90;;;4.90;;
75016;SDS011;63577;39.766;2.720;2022-10-18T00:46:37;20.80;;;4.80;;
75016;SDS011;63577;39.766;2.720;2022-10-18T00:49:10;25.50;;;5.10;;
75016;SDS011;63577;39.766;2.720;2022-10-18T00:51:44;26.90;;;5.30;;
75016;SDS011;63577;39.766;2.720;2022-10-18T00:54:10;26.90;;;5.80;;
75016;SDS011;63577;39.766;2.720;2022-10-18T00:56:36;26.40;;;4.80;;
75016;SDS011;63577;39.766;2.720;2022-10-18T00:59:01;26.80;;;5.00;;
75016;SDS011;63577;39.766;2.720;2022-10-18T01:01:27;27.60;;;4.50;;
75016;SDS011;63577;39.766;2.720;2022-10-18T01:03:52;22.90;;;5.30;;
75016;SDS011;63577;39.766;2.720;2022-10-18T01:06:18;26.60;;;5.50;;
75016;SDS011;63577;39.766;2.720;2022-10-18T01:11:16;25.50;;;5.10;;
75016;SDS011;63577;39.766;2.720;2022-10-18T01:16:24;27.40;;;4.60;;
75016;SDS011;63577;39.766;2.720;2022-10-18T01:24:07;19.40;;;4.50;;
75016;SDS011;63577;39.766;2.720;2022-10-18T01:31:46;22.10;;;4.20;;
75016;SDS011;63577;39.766;2.720;2022-10-18T01:34:12;21.40;;;4.20;;
75016;SDS011;63577;39.766;2.720;2022-10-18T01:36:40;25.10;;;5.00;;
75016;SDS011;63577;39.766;2.720;2022-10-18T01:39:11;26.50;;;4.80;;
75016;SDS011;63577;39.766;2.720;2022-10-18T01:41:38;29.00;;;5.20;;
75016;SDS011;63577;39.766;2.720;2022-10-18T01:44:05;21.20;;;4.30;;
75016;SDS011;63577;39.766;2.720;2022-10-18T01:46:31;26.60;;;4.90;;
75016;SDS011;63577;39.766;2.720;2022-10-18T01:48:57;25.10;;;4.30;;
75016;SDS011;63577;39.766;2.720;2022-10-18T01:51:27;26.00;;;4.60;;
75016;SDS011;63577;39.766;2.720;2022-10-18T01:53:53;22.10;;;4.50;;
75016;SDS011;63577;39.766;2.720;2022-10-18T02:04:03;20.00;;;4.20;;
75016;SDS011;63577;39.766;2.720;2022-10-18T02:06:30;26.80;;;4.90;;
75016;SDS011;63577;39.766;2.720;2022-10-18T02:11:53;19.00;;;4.60;;
75016;SDS011;63577;39.766;2.720;2022-10-18T02:14:19;20.40;;;4.10;;
75016;SDS011;63577;39.766;2.720;2022-10-18T02:16:57;19.20;;;4.60;;
75016;SDS011;63577;39.766;2.720;2022-10-18T02:19:28;19.60;;;4.20;;
75016;SDS011;63577;39.766;2.720;2022-10-18T02:21:55;22.50;;;4.50;;
75016;SDS011;63577;39.766;2.720;2022-10-18T02:24:22;18.30;;;4.30;;
75016;SDS011;63577;39.766;2.720;2022-10-18T02:26:48;19.60;;;4.50;;
75016;SDS011;63577;39.766;2.720;2022-10-18T02:29:14;21.60;;;4.50;;
75016;SDS011;63577;39.766;2.720;2022-10-18T02:31:44;23.20;;;4.90;;
75016;SDS011;63577;39.766;2.720;2022-10-18T02:36:41;23.40;;;4.60;;
75016;SDS011;63577;39.766;2.720;2022-10-18T02:39:10;21.80;;;4.90;;
75016;SDS011;63577;39.766;2.720;2022-10-18T02:41:36;24.10;;;4.50;;
75016;SDS011;63577;39.766;2.720;2022-10-18T02:44:01;22.20;;;4.40;;
75016;SDS011;63577;39.766;2.720;2022-10-18T02:46:27;25.20;;;4.40;;
75016;SDS011;63577;39.766;2.720;2022-10-18T02:48:52;24.50;;;4.20;;
75016;SDS011;63577;39.766;2.720;2022-10-18T02:51:17;17.30;;;3.80;;
75016;SDS011;63577;39.766;2.720;2022-10-18T02:53:43;23.50;;;4.40;;
75016;SDS011;63577;39.766;2.720;2022-10-18T02:56:08;18.90;;;3.90;;
75016;SDS011;63577;39.766;2.720;2022-10-18T02:58:33;18.40;;;3.60;;
75016;SDS011;63577;39.766;2.720;2022-10-18T03:00:59;19.60;;;3.90;;
75016;SDS011;63577;39.766;2.720;2022-10-18T03:03:24;20.20;;;4.40;;
75016;SDS011;63577;39.766;2.720;2022-10-18T03:05:50;22.60;;;4.60;;
75016;SDS011;63577;39.766;2.720;2022-10-18T03:08:15;20.40;;;4.40;;
75016;SDS011;63577;39.766;2.720;2022-10-18T03:10:44;22.90;;;4.60;;
75016;SDS011;63577;39.766;2.720;2022-10-18T03:13:09;21.10;;;4.20;;
75016;SDS011;63577;39.766;2.720;2022-10-18T03:15:35;20.90;;;4.70;;
75016;SDS011;63577;39.766;2.720;2022-10-18T03:18:01;21.10;;;4.60;;
75016;SDS011;63577;39.766;2.720;2022-10-18T03:20:26;21.70;;;4.30;;
75016;SDS011;63577;39.766;2.720;2022-10-18T03:22:51;18.20;;;3.80;;
75016;SDS011;63577;39.766;2.720;2022-10-18T03:25:17;21.80;;;4.50;;
75016;SDS011;63577;39.766;2.720;2022-10-18T03:27:42;23.90;;;4.70;;
75016;SDS011;63577;39.766;2.720;2022-10-18T03:30:08;24.60;;;4.10;;
75016;SDS011;63577;39.766;2.720;2022-10-18T03:32:36;14.30;;;3.50;;
75016;SDS011;63577;39.766;2.720;2022-10-18T03:35:01;25.20;;;4.90;;
75016;SDS011;63577;39.766;2.720;2022-10-18T03:37:27;21.60;;;4.50;;
75016;SDS011;63577;39.766;2.720;2022-10-18T03:39:52;19.60;;;4.60;;
75016;SDS011;63577;39.766;2.720;2022-10-18T03:42:17;20.50;;;4.60;;
75016;SDS011;63577;39.766;2.720;2022-10-18T03:44:43;15.80;;;3.90;;
75016;SDS011;63577;39.766;2.720;2022-10-18T03:47:08;23.50;;;4.30;;
75016;SDS011;63577;39.766;2.720;2022-10-18T03:49:33;20.00;;;4.40;;
75016;SDS011;63577;39.766;2.720;2022-10-18T03:51:59;21.50;;;4.40;;
75016;SDS011;63577;39.766;2.720;2022-10-18T03:54:24;19.80;;;4.30;;
75016;SDS011;63577;39.766;2.720;2022-10-18T03:56:49;23.40;;;4.70;;
75016;SDS011;63577;39.766;2.720;2022-10-18T03:59:15;26.20;;;4.20;;
75016;SDS011;63577;39.766;2.720;2022-10-18T04:01:41;21.70;;;4.80;;
75016;SDS011;63577;39.766;2.720;2022-10-18T04:04:06;21.20;;;4.40;;
75016;SDS011;63577;39.766;2.720;2022-10-18T04:06:32;21.30;;;4.50;;
75016;SDS011;63577;39.766;2.720;2022-10-18T04:08:57;22.70;;;4.70;;
75016;SDS011;63577;39.766;2.720;2022-10-18T04:11:22;26.10;;;4.30;;
75016;SDS011;63577;39.766;2.720;2022-10-18T04:13:48;22.00;;;4.20;;
75016;SDS011;63577;39.766;2.720;2022-10-18T04:16:14;17.00;;;4.40;;
75016;SDS011;63577;39.766;2.720;2022-10-18T04:18:40;16.70;;;4.10;;
75016;SDS011;63577;39.766;2.720;2022-10-18T04:21:05;21.10;;;4.60;;
75016;SDS011;63577;39.766;2.720;2022-10-18T04:23:30;16.50;;;3.70;;
75016;SDS011;63577;39.766;2.720;2022-10-18T04:25:55;19.30;;;4.20;;
75016;SDS011;63577;39.766;2.720;2022-10-18T04:28:21;21.50;;;4.20;;
75016;SDS011;63577;39.766;2.720;2022-10-18T04:30:50;16.90;;;3.80;;
75016;SDS011;63577;39.766;2.720;2022-10-18T04:33:15;18.70;;;4.30;;
75016;SDS011;63577;39.766;2.720;2022-10-18T04:35:41;18.80;;;4.20;;
75016;SDS011;63577;39.766;2.720;2022-10-18T04:38:06;19.10;;;4.50;;
75016;SDS011;63577;39.766;2.720;2022-10-18T04:40:32;18.80;;;4.60;;
75016;SDS011;63577;39.766;2.720;2022-10-18T04:42:57;22.30;;;5.00;;
75016;SDS011;63577;39.766;2.720;2022-10-18T04:45:22;18.50;;;4.10;;
75016;SDS011;63577;39.766;2.720;2022-10-18T04:47:48;18.80;;;3.80;;
75016;SDS011;63577;39.766;2.720;2022-10-18T04:50:13;17.20;;;4.40;;
75016;SDS011;63577;39.766;2.720;2022-10-18T04:52:38;18.70;;;4.40;;
75016;SDS011;63577;39.766;2.720;2022-10-18T04:55:04;18.50;;;4.60;;
75016;SDS011;63577;39.766;2.720;2022-10-18T04:57:29;17.70;;;4.00;;
75016;SDS011;63577;39.766;2.720;2022-10-18T04:59:55;20.00;;;3.80;;
75016;SDS011;63577;39.766;2.720;2022-10-18T05:02:20;19.90;;;3.70;;
75016;SDS011;63577;39.766;2.720;2022-10-18T05:04:45;17.70;;;4.00;;
75016;SDS011;63577;39.766;2.720;2022-10-18T05:07:11;17.60;;;3.90;;
75016;SDS011;63577;39.766;2.720;2022-10-18T05:09:36;18.30;;;5.00;;
75016;SDS011;63577;39.766;2.720;2022-10-18T05:12:01;20.40;;;4.20;;
75016;SDS011;63577;39.766;2.720;2022-10-18T05:14:27;20.40;;;3.60;;
75016;SDS011;63577;39.766;2.720;2022-10-18T05:16:52;19.00;;;4.70;;
75016;SDS011;63577;39.766;2.720;2022-10-18T05:19:17;19.90;;;4.20;;
75016;SDS011;63577;39.766;2.720;2022-10-18T05:21:43;17.60;;;4.10;;
75016;SDS011;63577;39.766;2.720;2022-10-18T05:24:10;19.10;;;4.40;;
75016;SDS011;63577;39.766;2.720;2022-10-18T05:26:35;24.90;;;4.80;;
75016;SDS011;63577;39.766;2.720;2022-10-18T05:29:01;20.80;;;4.90;;
75016;SDS011;63577;39.766;2.720;2022-10-18T05:31:26;16.80;;;4.10;;
75016;SDS011;63577;39.766;2.720;2022-10-18T05:33:52;22.50;;;4.80;;
75016;SDS011;63577;39.766;2.720;2022-10-18T05:36:17;23.20;;;5.10;;
75016;SDS011;63577;39.766;2.720;2022-10-18T05:38:42;30.20;;;4.70;;
75016;SDS011;63577;39.766;2.720;2022-10-18T05:41:09;20.00;;;4.80;;
75016;SDS011;63577;39.766;2.720;2022-10-18T05:43:35;17.10;;;4.40;;
75016;SDS011;63577;39.766;2.720;2022-10-18T05:46:00;20.00;;;4.30;;
75016;SDS011;63577;39.766;2.720;2022-10-18T05:48:25;17.00;;;4.50;;
75016;SDS011;63577;39.766;2.720;2022-10-18T05:50:51;16.40;;;4.30;;
75016;SDS011;63577;39.766;2.720;2022-10-18T05:53:16;16.60;;;4.70;;
75016;SDS011;63577;39.766;2.720;2022-10-18T05:55:41;18.80;;;3.60;;
75016;SDS011;63577;39.766;2.720;2022-10-18T05:58:07;15.70;;;3.70;;
75016;SDS011;63577;39.766;2.720;2022-10-18T06:00:32;17.20;;;3.90;;
75016;SDS011;63577;39.766;2.720;2022-10-18T06:02:57;14.50;;;4.60;;
75016;SDS011;63577;39.766;2.720;2022-10-18T06:05:23;18.40;;;3.90;;
75016;SDS011;63577;39.766;2.720;2022-10-18T06:07:48;22.50;;;4.20;;
75016;SDS011;63577;39.766;2.720;2022-10-18T06:10:13;18.90;;;4.60;;
75016;SDS011;63577;39.766;2.720;2022-10-18T06:12:39;20.00;;;4.40;;
75016;SDS011;63577;39.766;2.720;2022-10-18T06:15:04;22.30;;;4.40;;
75016;SDS011;63577;39.766;2.720;2022-10-18T06:17:30;17.30;;;4.30;;
75016;SDS011;63577;39.766;2.720;2022-10-18T06:19:55;16.60;;;4.00;;
75016;SDS011;63577;39.766;2.720;2022-10-18T06:22:20;20.80;;;4.60;;
75016;SDS011;63577;39.766;2.720;2022-10-18T06:24:46;18.30;;;4.60;;
75016;SDS011;63577;39.766;2.720;2022-10-18T06:27:11;20.30;;;5.50;;
75016;SDS011;63577;39.766;2.720;2022-10-18T06:29:37;20.00;;;5.20;;
75016;SDS011;63577;39.766;2.720;2022-10-18T06:32:03;18.30;;;5.40;;
75016;SDS011;63577;39.766;2.720;2022-10-18T06:34:29;16.30;;;4.60;;
75016;SDS011;63577;39.766;2.720;2022-10-18T06:36:55;18.70;;;5.60;;
75016;SDS011;63577;39.766;2.720;2022-10-18T06:39:20;23.60;;;7.70;;
75016;SDS011;63577;39.766;2.720;2022-10-18T06:41:45;29.00;;;10.10;;
75016;SDS011;63577;39.766;2.720;2022-10-18T06:44:11;30.70;;;11.20;;
75016;SDS011;63577;39.766;2.720;2022-10-18T06:46:40;33.20;;;12.80;;
75016;SDS011;63577;39.766;2.720;2022-10-18T06:49:05;29.30;;;10.80;;
75016;SDS011;63577;39.766;2.720;2022-10-18T06:51:31;32.30;;;13.80;;
75016;SDS011;63577;39.766;2.720;2022-10-18T06:53:56;28.80;;;11.40;;
75016;SDS011;63577;39.766;2.720;2022-10-18T06:56:21;28.90;;;9.90;;
75016;SDS011;63577;39.766;2.720;2022-10-18T06:58:47;26.50;;;9.10;;
75016;SDS011;63577;39.766;2.720;2022-10-18T07:01:13;28.10;;;9.50;;
75016;SDS011;63577;39.766;2.720;2022-10-18T07:03:40;30.50;;;11.00;;
75016;SDS011;63577;39.766;2.720;2022-10-18T07:06:06;30.30;;;11.40;;
75016;SDS011;63577;39.766;2.720;2022-10-18T07:08:31;36.10;;;11.00;;
75016;SDS011;63577;39.766;2.720;2022-10-18T07:10:57;29.10;;;10.30;;
75016;SDS011;63577;39.766;2.720;2022-10-18T07:13:22;27.90;;;10.40;;
75016;SDS011;63577;39.766;2.720;2022-10-18T07:15:48;32.70;;;12.50;;
75016;SDS011;63577;39.766;2.720;2022-10-18T07:18:23;43.90;;;15.80;;
75016;SDS011;63577;39.766;2.720;2022-10-18T07:20:48;37.20;;;15.00;;
75016;SDS011;63577;39.766;2.720;2022-10-18T07:23:14;31.10;;;12.00;;
75016;SDS011;63577;39.766;2.720;2022-10-18T07:25:39;24.90;;;10.10;;
75016;SDS011;63577;39.766;2.720;2022-10-18T07:28:04;27.30;;;9.10;;
75016;SDS011;63577;39.766;2.720;2022-10-18T07:30:30;26.20;;;9.80;;
75016;SDS011;63577;39.766;2.720;2022-10-18T07:32:55;26.40;;;10.00;;
75016;SDS011;63577;39.766;2.720;2022-10-18T07:35:20;30.60;;;9.70;;
75016;SDS011;63577;39.766;2.720;2022-10-18T07:37:45;29.10;;;12.00;;
75016;SDS011;63577;39.766;2.720;2022-10-18T07:40:11;43.50;;;14.60;;
75016;SDS011;63577;39.766;2.720;2022-10-18T07:42:37;39.40;;;16.10;;
75016;SDS011;63577;39.766;2.720;2022-10-18T07:45:02;37.10;;;16.00;;
75016;SDS011;63577;39.766;2.720;2022-10-18T07:47:28;32.90;;;15.30;;
75016;SDS011;63577;39.766;2.720;2022-10-18T07:49:53;38.70;;;15.40;;
75016;SDS011;63577;39.766;2.720;2022-10-18T07:52:18;35.90;;;16.20;;
75016;SDS011;63577;39.766;2.720;2022-10-18T07:54:44;38.00;;;16.50;;
75016;SDS011;63577;39.766;2.720;2022-10-18T07:57:09;36.00;;;16.10;;
75016;SDS011;63577;39.766;2.720;2022-10-18T07:59:34;33.40;;;15.50;;
75016;SDS011;63577;39.766;2.720;2022-10-18T08:02:00;33.00;;;15.50;;
75016;SDS011;63577;39.766;2.720;2022-10-18T08:04:25;37.30;;;13.90;;
75016;SDS011;63577;39.766;2.720;2022-10-18T08:06:50;37.00;;;14.50;;
75016;SDS011;63577;39.766;2.720;2022-10-18T08:09:16;63.90;;;27.90;;
75016;SDS011;63577;39.766;2.720;2022-10-18T08:11:41;66.00;;;28.70;;
75016;SDS011;63577;39.766;2.720;2022-10-18T08:14:06;83.70;;;37.30;;
75016;SDS011;63577;39.766;2.720;2022-10-18T08:16:32;46.30;;;20.00;;
75016;SDS011;63577;39.766;2.720;2022-10-18T08:18:57;39.20;;;17.90;;
75016;SDS011;63577;39.766;2.720;2022-10-18T08:21:22;48.90;;;21.50;;
75016;SDS011;63577;39.766;2.720;2022-10-18T08:23:48;33.80;;;14.80;;
75016;SDS011;63577;39.766;2.720;2022-10-18T08:26:15;41.90;;;14.80;;
75016;SDS011;63577;39.766;2.720;2022-10-18T08:28:41;33.90;;;12.20;;
75016;SDS011;63577;39.766;2.720;2022-10-18T08:31:10;37.40;;;19.30;;
75016;SDS011;63577;39.766;2.720;2022-10-18T08:33:36;40.80;;;14.90;;
75016;SDS011;63577;39.766;2.720;2022-10-18T08:36:03;41.90;;;15.10;;
75016;SDS011;63577;39.766;2.720;2022-10-18T08:38:32;36.30;;;15.50;;
75016;SDS011;63577;39.766;2.720;2022-10-18T08:41:05;37.70;;;20.20;;
75016;SDS011;63577;39.766;2.720;2022-10-18T08:46:22;55.40;;;32.60;;
75016;SDS011;63577;39.766;2.720;2022-10-18T08:48:48;50.50;;;25.40;;
75016;SDS011;63577;39.766;2.720;2022-10-18T08:53:54;42.60;;;18.90;;
75016;SDS011;63577;39.766;2.720;2022-10-18T08:56:23;42.20;;;17.20;;
75016;SDS011;63577;39.766;2.720;2022-10-18T08:58:49;38.20;;;16.00;;
75016;SDS011;63577;39.766;2.720;2022-10-18T09:11:45;23.60;;;6.40;;
75016;SDS011;63577;39.766;2.720;2022-10-18T09:19:21;25.80;;;5.60;;
75016;SDS011;63577;39.766;2.720;2022-10-18T09:21:51;22.80;;;5.20;;
75016;SDS011;63577;39.766;2.720;2022-10-18T09:24:25;21.20;;;5.00;;
75016;SDS011;63577;39.766;2.720;2022-10-18T09:26:55;23.60;;;6.50;;
75016;SDS011;63577;39.766;2.720;2022-10-18T09:34:31;19.80;;;4.60;;
75016;SDS011;63577;39.766;2.720;2022-10-18T09:37:00;26.10;;;5.80;;
75016;SDS011;63577;39.766;2.720;2022-10-18T09:39:33;22.90;;;5.00;;
75016;SDS011;63577;39.766;2.720;2022-10-18T09:42:02;24.20;;;5.40;;
75016;SDS011;63577;39.766;2.720;2022-10-18T09:44:38;22.20;;;5.50;;
75016;SDS011;63577;39.766;2.720;2022-10-18T09:47:11;24.40;;;5.10;;
75016;SDS011;63577;39.766;2.720;2022-10-18T09:49:41;23.80;;;6.00;;
75016;SDS011;63577;39.766;2.720;2022-10-18T09:52:08;22.70;;;4.70;;
75016;SDS011;63577;39.766;2.720;2022-10-18T09:54:38;24.90;;;5.60;;
75016;SDS011;63577;39.766;2.720;2022-10-18T09:57:15;33.30;;;9.20;;
75016;SDS011;63577;39.766;2.720;2022-10-18T09:59:45;31.10;;;8.50;;
75016;SDS011;63577;39.766;2.720;2022-10-18T10:02:12;24.70;;;7.30;;
75016;SDS011;63577;39.766;2.720;2022-10-18T10:04:37;27.60;;;6.90;;
75016;SDS011;63577;39.766;2.720;2022-10-18T10:07:03;26.40;;;7.70;;
75016;SDS011;63577;39.766;2.720;2022-10-18T10:09:35;27.50;;;8.50;;
75016;SDS011;63577;39.766;2.720;2022-10-18T10:12:01;31.50;;;8.30;;
75016;SDS011;63577;39.766;2.720;2022-10-18T10:14:27;30.30;;;6.90;;
75016;SDS011;63577;39.766;2.720;2022-10-18T10:19:24;23.20;;;6.10;;
75016;SDS011;63577;39.766;2.720;2022-10-18T10:21:52;20.60;;;5.80;;
75016;SDS011;63577;39.766;2.720;2022-10-18T10:24:20;24.70;;;6.00;;
75016;SDS011;63577;39.766;2.720;2022-10-18T10:26:46;26.70;;;6.10;;
75016;SDS011;63577;39.766;2.720;2022-10-18T10:32:02;20.40;;;4.90;;
75016;SDS011;63577;39.766;2.720;2022-10-18T10:34:28;19.50;;;5.70;;
75016;SDS011;63577;39.766;2.720;2022-10-18T10:36:54;23.20;;;5.10;;
75016;SDS011;63577;39.766;2.720;2022-10-18T10:39:21;30.40;;;5.40;;
75016;SDS011;63577;39.766;2.720;2022-10-18T10:41:53;20.80;;;5.20;;
75016;SDS011;63577;39.766;2.720;2022-10-18T10:44:21;24.30;;;5.20;;
75016;SDS011;63577;39.766;2.720;2022-10-18T10:46:48;20.00;;;5.60;;
75016;SDS011;63577;39.766;2.720;2022-10-18T10:49:21;25.70;;;5.60;;
75016;SDS011;63577;39.766;2.720;2022-10-18T10:51:54;24.60;;;5.70;;
75016;SDS011;63577;39.766;2.720;2022-10-18T10:54:21;21.20;;;5.30;;
75016;SDS011;63577;39.766;2.720;2022-10-18T10:56:57;20.80;;;6.20;;
75016;SDS011;63577;39.766;2.720;2022-10-18T10:59:24;21.60;;;5.00;;
75016;SDS011;63577;39.766;2.720;2022-10-18T11:04:35;24.70;;;5.10;;
75016;SDS011;63577;39.766;2.720;2022-10-18T11:07:19;22.70;;;4.80;;
75016;SDS011;63577;39.766;2.720;2022-10-18T11:12:40;24.10;;;4.80;;
75016;SDS011;63577;39.766;2.720;2022-10-18T11:25:22;23.20;;;5.20;;
75016;SDS011;63577;39.766;2.720;2022-10-18T11:27:51;27.40;;;5.90;;
75016;SDS011;63577;39.766;2.720;2022-10-18T11:35:25;19.70;;;5.00;;
75016;SDS011;63577;39.766;2.720;2022-10-18T11:40:38;24.70;;;5.60;;
75016;SDS011;63577;39.766;2.720;2022-10-18T11:43:19;25.10;;;5.40;;
75016;SDS011;63577;39.766;2.720;2022-10-18T11:45:56;17.20;;;4.70;;
75016;SDS011;63577;39.766;2.720;2022-10-18T11:51:56;25.70;;;5.00;;
75016;SDS011;63577;39.766;2.720;2022-10-18T12:04:10;22.50;;;5.60;;
75016;SDS011;63577;39.766;2.720;2022-10-18T12:06:39;21.40;;;5.60;;
75016;SDS011;63577;39.766;2.720;2022-10-18T12:11:45;18.50;;;5.40;;
75016;SDS011;63577;39.766;2.720;2022-10-18T12:14:24;22.50;;;5.10;;
75016;SDS011;63577;39.766;2.720;2022-10-18T12:16:51;28.30;;;6.70;;
75016;SDS011;63577;39.766;2.720;2022-10-18T12:19:19;18.90;;;5.00;;
75016;SDS011;63577;39.766;2.720;2022-10-18T12:21:46;23.70;;;6.20;;
75016;SDS011;63577;39.766;2.720;2022-10-18T12:24:13;24.50;;;6.00;;
75016;SDS011;63577;39.766;2.720;2022-10-18T12:26:42;21.10;;;5.40;;
75016;SDS011;63577;39.766;2.720;2022-10-18T12:31:56;21.20;;;5.30;;
75016;SDS011;63577;39.766;2.720;2022-10-18T12:34:24;25.00;;;5.50;;
75016;SDS011;63577;39.766;2.720;2022-10-18T12:36:59;18.00;;;5.30;;
75016;SDS011;63577;39.766;2.720;2022-10-18T12:39:31;24.10;;;5.30;;
75016;SDS011;63577;39.766;2.720;2022-10-18T12:41:57;21.50;;;5.50;;
75016;SDS011;63577;39.766;2.720;2022-10-18T12:44:32;20.80;;;5.00;;
75016;SDS011;63577;39.766;2.720;2022-10-18T12:46:58;29.70;;;6.40;;
75016;SDS011;63577;39.766;2.720;2022-10-18T12:51:53;20.30;;;5.10;;
75016;SDS011;63577;39.766;2.720;2022-10-18T12:54:21;21.00;;;4.70;;
75016;SDS011;63577;39.766;2.720;2022-10-18T12:56:48;19.70;;;5.70;;
75016;SDS011;63577;39.766;2.720;2022-10-18T13:09:24;19.40;;;5.00;;
75016;SDS011;63577;39.766;2.720;2022-10-18T13:11:51;20.70;;;5.10;;
75016;SDS011;63577;39.766;2.720;2022-10-18T13:14:29;22.00;;;5.20;;
75016;SDS011;63577;39.766;2.720;2022-10-18T13:24:34;20.80;;;5.20;;
75016;SDS011;63577;39.766;2.720;2022-10-18T13:29:39;20.10;;;4.80;;
75016;SDS011;63577;39.766;2.720;2022-10-18T13:34:52;20.70;;;4.60;;
75016;SDS011;63577;39.766;2.720;2022-10-18T13:37:24;24.20;;;4.80;;
75016;SDS011;63577;39.766;2.720;2022-10-18T13:39:50;18.90;;;5.30;;
75016;SDS011;63577;39.766;2.720;2022-10-18T13:42:17;20.80;;;4.90;;
75016;SDS011;63577;39.766;2.720;2022-10-18T13:44:43;19.60;;;5.00;;
75016;SDS011;63577;39.766;2.720;2022-10-18T13:47:10;19.40;;;5.30;;
75016;SDS011;63577;39.766;2.720;2022-10-18T13:54:45;18.80;;;5.20;;
75016;SDS011;63577;39.766;2.720;2022-10-18T13:59:53;22.70;;;5.40;;
75016;SDS011;63577;39.766;2.720;2022-10-18T14:07:21;22.00;;;5.20;;
75016;SDS011;63577;39.766;2.720;2022-10-18T14:09:50;21.10;;;4.80;;
75016;SDS011;63577;39.766;2.720;2022-10-18T14:15:01;18.20;;;5.00;;
75016;SDS011;63577;39.766;2.720;2022-10-18T14:19:59;23.90;;;5.60;;
75016;SDS011;63577;39.766;2.720;2022-10-18T14:24:58;22.70;;;5.80;;
75016;SDS011;63577;39.766;2.720;2022-10-18T14:27:24;21.10;;;4.90;;
75016;SDS011;63577;39.766;2.720;2022-10-18T14:30:05;20.60;;;4.80;;
75016;SDS011;63577;39.766;2.720;2022-10-18T14:32:31;20.80;;;5.40;;
75016;SDS011;63577;39.766;2.720;2022-10-18T14:34:57;21.60;;;5.60;;
75016;SDS011;63577;39.766;2.720;2022-10-18T14:37:33;16.20;;;4.50;;
75016;SDS011;63577;39.766;2.720;2022-10-18T14:39:58;22.40;;;4.60;;
75016;SDS011;63577;39.766;2.720;2022-10-18T14:42:24;17.70;;;5.60;;
75016;SDS011;63577;39.766;2.720;2022-10-18T14:44:50;24.00;;;5.00;;
75016;SDS011;63577;39.766;2.720;2022-10-18T14:47:19;19.90;;;5.40;;
75016;SDS011;63577;39.766;2.720;2022-10-18T14:52:21;21.90;;;5.60;;
75016;SDS011;63577;39.766;2.720;2022-10-18T14:54:47;19.60;;;5.90;;
75016;SDS011;63577;39.766;2.720;2022-10-18T14:57:17;27.00;;;5.50;;
75016;SDS011;63577;39.766;2.720;2022-10-18T14:59:47;18.90;;;5.50;;
75016;SDS011;63577;39.766;2.720;2022-10-18T15:02:20;26.30;;;5.80;;
75016;SDS011;63577;39.766;2.720;2022-10-18T15:04:53;20.30;;;5.30;;
75016;SDS011;63577;39.766;2.720;2022-10-18T15:07:19;28.40;;;5.90;;
75016;SDS011;63577;39.766;2.720;2022-10-18T15:09:45;24.00;;;5.70;;
75016;SDS011;63577;39.766;2.720;2022-10-18T15:12:11;23.70;;;6.00;;
75016;SDS011;63577;39.766;2.720;2022-10-18T15:14:38;19.40;;;5.30;;
75016;SDS011;63577;39.766;2.720;2022-10-18T15:17:15;23.30;;;5.80;;
75016;SDS011;63577;39.766;2.720;2022-10-18T15:19:52;22.20;;;5.40;;
75016;SDS011;63577;39.766;2.720;2022-10-18T15:22:21;19.90;;;4.90;;
75016;SDS011;63577;39.766;2.720;2022-10-18T15:25:01;25.50;;;6.00;;
75016;SDS011;63577;39.766;2.720;2022-10-18T15:27:28;22.90;;;5.40;;
75016;SDS011;63577;39.766;2.720;2022-10-18T15:29:55;16.40;;;5.20;;
75016;SDS011;63577;39.766;2.720;2022-10-18T15:32:24;22.10;;;5.20;;
75016;SDS011;63577;39.766;2.720;2022-10-18T15:34:51;30.20;;;6.00;;
75016;SDS011;63577;39.766;2.720;2022-10-18T15:37:22;19.20;;;6.10;;
75016;SDS011;63577;39.766;2.720;2022-10-18T15:40:14;22.90;;;6.30;;
75016;SDS011;63577;39.766;2.720;2022-10-18T15:42:36;27.30;;;5.90;;
75016;SDS011;63577;39.766;2.720;2022-10-18T15:45:01;24.80;;;6.50;;
75016;SDS011;63577;39.766;2.720;2022-10-18T15:47:27;25.40;;;6.60;;
75016;SDS011;63577;39.766;2.720;2022-10-18T15:49:53;22.90;;;6.70;;
75016;SDS011;63577;39.766;2.720;2022-10-18T15:52:30;24.70;;;6.60;;
75016;SDS011;63577;39.766;2.720;2022-10-18T15:54:56;25.40;;;7.20;;
75016;SDS011;63577;39.766;2.720;2022-10-18T15:57:22;30.60;;;9.10;;
75016;SDS011;63577;39.766;2.720;2022-10-18T15:59:48;23.10;;;7.10;;
75016;SDS011;63577;39.766;2.720;2022-10-18T16:02:15;21.40;;;5.90;;
75016;SDS011;63577;39.766;2.720;2022-10-18T16:04:41;24.00;;;7.10;;
75016;SDS011;63577;39.766;2.720;2022-10-18T16:07:08;23.50;;;7.20;;
75016;SDS011;63577;39.766;2.720;2022-10-18T16:09:33;21.20;;;7.10;;
75016;SDS011;63577;39.766;2.720;2022-10-18T16:11:59;26.00;;;10.90;;
75016;SDS011;63577;39.766;2.720;2022-10-18T16:14:25;24.10;;;9.70;;
75016;SDS011;63577;39.766;2.720;2022-10-18T16:16:51;28.90;;;14.60;;
75016;SDS011;63577;39.766;2.720;2022-10-18T16:19:18;24.50;;;9.00;;
75016;SDS011;63577;39.766;2.720;2022-10-18T16:21:45;20.30;;;7.40;;
75016;SDS011;63577;39.766;2.720;2022-10-18T16:24:10;36.90;;;19.00;;
75016;SDS011;63577;39.766;2.720;2022-10-18T16:26:36;42.90;;;21.10;;
75016;SDS011;63577;39.766;2.720;2022-10-18T16:29:02;46.60;;;23.30;;
75016;SDS011;63577;39.766;2.720;2022-10-18T16:31:29;48.30;;;21.60;;
75016;SDS011;63577;39.766;2.720;2022-10-18T16:33:55;29.10;;;13.70;;
75016;SDS011;63577;39.766;2.720;2022-10-18T16:36:28;33.70;;;12.40;;
75016;SDS011;63577;39.766;2.720;2022-10-18T16:38:55;35.90;;;12.20;;
75016;SDS011;63577;39.766;2.720;2022-10-18T16:41:20;31.10;;;11.90;;
75016;SDS011;63577;39.766;2.720;2022-10-18T16:43:46;35.00;;;12.20;;
75016;SDS011;63577;39.766;2.720;2022-10-18T16:46:14;23.90;;;8.00;;
75016;SDS011;63577;39.766;2.720;2022-10-18T16:48:41;25.90;;;6.50;;
75016;SDS011;63577;39.766;2.720;2022-10-18T16:51:07;23.20;;;6.40;;
75016;SDS011;63577;39.766;2.720;2022-10-18T16:53:33;18.20;;;6.30;;
75016;SDS011;63577;39.766;2.720;2022-10-18T16:55:59;24.70;;;6.70;;
75016;SDS011;63577;39.766;2.720;2022-10-18T16:58:25;19.90;;;6.50;;
75016;SDS011;63577;39.766;2.720;2022-10-18T17:00:51;22.00;;;6.40;;
75016;SDS011;63577;39.766;2.720;2022-10-18T17:03:16;20.20;;;6.20;;
75016;SDS011;63577;39.766;2.720;2022-10-18T17:05:42;25.70;;;6.70;;